Heber Springs, Arkansas
Current Conditions -  °F | °C
As of 5:56 PM on Saturday 25 Oct 2014 (Local Time) from KSRC Reporting Station
Clear Clear  
Wind Chill: 79°   Ceiling: Unl
Heat Index: 81°   Visibility: 10mi
Dew Point: 66°   Wind: 3mph
Humidity: 64%   Direction: 220°SW
Pressure: 30.02"   Gusts: NA
Location:  35.49°N, 92.04°W
Report Text: KSRC 252256Z AUTO 22003KT 10SM CLR 26/19 A3002 RMK AO2 SLP169 T02610189 TSNO
Loading
Personal Weather Stations






























Interactive Weather Map
Tropical Storm Tracking
New forecast layout! Learn more

10-Day Weather Forecast

Advertisements
Track Severe Weather on mobile